createdAt,value
2018-10-03T00:01:05.977Z,11.00
2018-10-03T00:03:33.707Z,11.10
2018-10-03T00:06:01.488Z,11.10
2018-10-03T00:08:29.194Z,11.10
2018-10-03T00:10:57.065Z,11.00
2018-10-03T00:13:24.872Z,11.00
2018-10-03T00:15:52.703Z,11.00
2018-10-03T00:18:20.464Z,11.10
2018-10-03T00:20:48.281Z,11.00
2018-10-03T00:23:16.044Z,11.00
2018-10-03T00:25:43.853Z,11.00
2018-10-03T00:28:11.757Z,10.90
2018-10-03T00:30:39.498Z,10.90
2018-10-03T00:33:07.397Z,11.00
2018-10-03T00:35:35.109Z,10.90
2018-10-03T00:38:02.935Z,10.90
2018-10-03T00:40:30.758Z,10.90
2018-10-03T00:42:58.670Z,10.90
2018-10-03T00:45:26.566Z,10.90
2018-10-03T00:47:54.463Z,10.80
2018-10-03T00:50:22.362Z,10.90
2018-10-03T00:52:50.192Z,10.90
2018-10-03T00:55:18.005Z,10.90
2018-10-03T00:57:45.834Z,10.90
2018-10-03T01:00:13.672Z,10.90
2018-10-03T01:02:41.565Z,11.00
2018-10-03T01:05:09.598Z,10.90
2018-10-03T01:07:37.318Z,10.90
2018-10-03T01:10:05.193Z,10.90
2018-10-03T01:12:32.983Z,11.00
2018-10-03T01:15:00.640Z,11.00
2018-10-03T01:17:28.471Z,11.00
2018-10-03T01:19:56.182Z,11.00
2018-10-03T01:22:23.949Z,11.00
2018-10-03T01:24:51.776Z,11.00
2018-10-03T01:27:19.502Z,11.00
2018-10-03T01:29:47.286Z,11.00
2018-10-03T01:32:15.074Z,11.00
2018-10-03T01:34:42.913Z,11.00
2018-10-03T01:37:10.680Z,11.00
2018-10-03T01:39:38.386Z,10.90
2018-10-03T01:42:06.595Z,10.80
2018-10-03T01:44:34.409Z,10.80
2018-10-03T01:47:02.147Z,10.70
2018-10-03T01:49:29.911Z,10.70
2018-10-03T01:51:57.664Z,10.70
2018-10-03T01:54:25.575Z,10.60
2018-10-03T01:56:53.292Z,10.70
2018-10-03T01:59:21.057Z,10.70
2018-10-03T02:01:48.781Z,10.80
2018-10-03T02:04:16.587Z,10.80
2018-10-03T02:06:44.452Z,10.80
2018-10-03T02:09:12.264Z,10.90
2018-10-03T02:11:39.997Z,10.90
2018-10-03T02:14:07.777Z,10.90
2018-10-03T02:16:35.519Z,10.90
2018-10-03T02:19:03.521Z,10.90
2018-10-03T02:21:31.490Z,10.90
2018-10-03T02:23:59.297Z,10.90
2018-10-03T02:26:27.148Z,10.90
2018-10-03T02:28:54.898Z,10.80
2018-10-03T02:31:22.782Z,10.90
2018-10-03T02:33:50.595Z,10.80
2018-10-03T02:36:18.447Z,10.80
2018-10-03T02:38:46.293Z,10.80
2018-10-03T02:41:14.196Z,10.80
2018-10-03T02:43:42.082Z,10.80
2018-10-03T02:46:09.892Z,10.80
2018-10-03T02:48:37.723Z,10.80
2018-10-03T02:51:05.593Z,10.70
2018-10-03T02:53:33.639Z,10.70
2018-10-03T02:56:01.495Z,10.70
2018-10-03T02:58:29.416Z,10.70
2018-10-03T03:00:57.187Z,10.60
2018-10-03T03:03:25.068Z,10.60
2018-10-03T03:05:52.852Z,10.60
2018-10-03T03:08:20.755Z,10.50
2018-10-03T03:10:48.546Z,10.40
2018-10-03T03:13:16.374Z,10.40
2018-10-03T03:15:44.206Z,10.40
2018-10-03T03:18:12.120Z,10.30
2018-10-03T03:20:39.871Z,10.20
2018-10-03T03:23:07.642Z,10.30
2018-10-03T03:25:35.441Z,10.30
2018-10-03T03:28:03.468Z,10.20
2018-10-03T03:30:31.263Z,10.10
2018-10-03T03:32:59.104Z,10.10
2018-10-03T03:35:26.861Z,10.10
2018-10-03T03:37:54.846Z,10.10
2018-10-03T03:40:22.537Z,10.10
2018-10-03T03:42:50.286Z,10.00
2018-10-03T03:45:18.008Z,10.00
2018-10-03T03:47:45.743Z,10.10
2018-10-03T03:50:13.599Z,10.10
2018-10-03T03:52:41.309Z,10.10
2018-10-03T03:55:09.043Z,10.10
2018-10-03T03:57:36.875Z,10.00
2018-10-03T04:00:04.830Z,9.90
2018-10-03T04:02:32.652Z,9.90
2018-10-03T04:05:00.395Z,9.90
2018-10-03T04:07:28.217Z,9.80
2018-10-03T04:09:55.991Z,9.80
2018-10-03T04:12:23.737Z,9.90
2018-10-03T04:14:51.494Z,9.80
2018-10-03T04:17:19.321Z,9.80
2018-10-03T04:19:47.127Z,9.80
2018-10-03T04:22:14.937Z,9.80
2018-10-03T04:24:42.673Z,9.90
2018-10-03T04:27:10.491Z,10.00
2018-10-03T04:29:38.303Z,10.10
2018-10-03T04:32:06.085Z,10.20
2018-10-03T04:34:33.866Z,10.30
2018-10-03T04:37:01.593Z,10.30
2018-10-03T04:39:29.367Z,10.40
2018-10-03T04:41:57.093Z,10.40
2018-10-03T04:44:24.856Z,10.50
2018-10-03T04:46:52.659Z,10.50
2018-10-03T04:49:20.467Z,10.60
2018-10-03T04:51:48.154Z,10.60
2018-10-03T04:54:15.983Z,10.60
2018-10-03T04:56:43.808Z,10.70
2018-10-03T04:59:11.494Z,10.70
2018-10-03T05:01:39.178Z,10.80
2018-10-03T05:04:06.950Z,10.70
2018-10-03T05:06:34.766Z,10.70
2018-10-03T05:09:04.006Z,10.80
2018-10-03T05:11:31.748Z,10.80
2018-10-03T05:13:59.550Z,10.80
2018-10-03T05:16:27.367Z,10.90
2018-10-03T05:18:55.274Z,10.90
2018-10-03T05:21:23.108Z,10.90
2018-10-03T05:23:51.613Z,10.90
2018-10-03T05:26:19.354Z,11.00
2018-10-03T05:28:47.206Z,11.00
2018-10-03T05:31:15.204Z,11.00
2018-10-03T05:33:43.326Z,11.10
2018-10-03T05:36:11.038Z,11.10
2018-10-03T05:38:38.780Z,11.10
2018-10-03T05:41:06.467Z,11.20
2018-10-03T05:43:34.146Z,11.10
2018-10-03T05:46:01.765Z,11.20
2018-10-03T05:48:29.567Z,11.20
2018-10-03T05:50:57.088Z,11.20
2018-10-03T05:53:24.753Z,11.20
2018-10-03T05:55:52.421Z,11.30
2018-10-03T05:58:20.175Z,11.30
2018-10-03T06:00:47.951Z,11.30
2018-10-03T06:03:15.692Z,11.40
2018-10-03T06:05:43.299Z,11.40
2018-10-03T06:08:11.046Z,11.50
2018-10-03T06:10:38.693Z,11.50
2018-10-03T06:13:06.897Z,11.40
2018-10-03T06:15:34.585Z,11.40
2018-10-03T06:18:02.322Z,11.40
2018-10-03T06:20:30.019Z,11.50
2018-10-03T06:22:57.700Z,11.50
2018-10-03T06:25:25.501Z,11.50
2018-10-03T06:27:53.146Z,11.50
2018-10-03T06:30:20.881Z,11.50
2018-10-03T06:32:48.610Z,11.50
2018-10-03T06:35:16.272Z,11.60
2018-10-03T06:37:43.900Z,11.50
2018-10-03T06:40:11.560Z,11.60
2018-10-03T06:42:39.506Z,11.60
2018-10-03T06:45:07.262Z,11.70
2018-10-03T06:47:34.944Z,11.70
2018-10-03T06:50:02.570Z,11.70
2018-10-03T06:52:30.253Z,11.80
2018-10-03T06:54:57.892Z,11.90
2018-10-03T06:57:25.587Z,11.90
2018-10-03T06:59:53.299Z,11.90
2018-10-03T07:02:20.918Z,12.00
2018-10-03T07:04:48.610Z,11.90
2018-10-03T07:07:16.329Z,11.80
2018-10-03T07:09:44.010Z,11.50
2018-10-03T07:12:11.694Z,11.50
2018-10-03T07:14:39.400Z,11.40
2018-10-03T07:17:07.126Z,11.30
2018-10-03T07:19:34.898Z,11.40
2018-10-03T07:22:02.585Z,11.50
2018-10-03T07:24:30.249Z,11.40
2018-10-03T07:26:58.213Z,11.50
2018-10-03T07:29:25.939Z,11.20
2018-10-03T07:31:53.649Z,10.70
2018-10-03T07:34:21.260Z,10.60
2018-10-03T07:36:48.966Z,10.70
2018-10-03T07:39:16.874Z,10.70
2018-10-03T07:41:44.860Z,10.70
2018-10-03T07:44:12.696Z,10.80
2018-10-03T07:46:40.483Z,10.90
2018-10-03T07:49:08.288Z,11.10
2018-10-03T07:51:36.040Z,11.40
2018-10-03T07:54:04.029Z,11.50
2018-10-03T07:56:31.943Z,11.70
2018-10-03T07:59:00.083Z,11.90
2018-10-03T08:01:27.883Z,12.00
2018-10-03T08:03:55.594Z,12.20
2018-10-03T08:06:23.321Z,12.30
2018-10-03T08:08:51.113Z,12.40
2018-10-03T08:11:18.969Z,12.40
2018-10-03T08:13:46.623Z,12.50
2018-10-03T08:16:14.308Z,12.50
2018-10-03T08:18:42.071Z,12.70
2018-10-03T08:21:09.796Z,12.70
2018-10-03T08:23:37.565Z,12.50
2018-10-03T08:26:05.510Z,12.60
2018-10-03T08:28:33.228Z,12.60
2018-10-03T08:31:00.995Z,12.60
2018-10-03T08:33:28.627Z,12.70
2018-10-03T08:35:56.328Z,12.80
2018-10-03T08:38:24.032Z,12.90
2018-10-03T08:40:51.816Z,13.00
2018-10-03T08:43:19.406Z,13.20
2018-10-03T08:45:47.195Z,13.20
2018-10-03T08:48:14.870Z,13.20
2018-10-03T08:50:42.614Z,13.40
2018-10-03T08:53:10.287Z,13.50
2018-10-03T08:55:38.060Z,13.80
2018-10-03T08:58:05.932Z,13.80
2018-10-03T09:00:33.778Z,14.00
2018-10-03T09:03:01.534Z,13.90
2018-10-03T09:05:29.452Z,13.80
2018-10-03T09:08:08.072Z,14.00
2018-10-03T09:10:35.773Z,13.90
2018-10-03T09:13:03.462Z,13.90
2018-10-03T09:15:31.191Z,14.00
2018-10-03T09:18:00.322Z,14.20
2018-10-03T09:20:28.745Z,14.00
2018-10-03T09:22:56.755Z,13.90
2018-10-03T09:25:24.711Z,13.90
2018-10-03T09:27:52.953Z,14.20
2018-10-03T09:30:21.797Z,14.30
2018-10-03T09:32:50.725Z,14.10
2018-10-03T09:35:21.917Z,14.10
2018-10-03T09:37:50.180Z,14.30
2018-10-03T09:40:18.180Z,14.40
2018-10-03T09:42:46.376Z,14.40
2018-10-03T09:45:14.684Z,14.30
2018-10-03T09:47:43.144Z,14.10
2018-10-03T09:50:11.370Z,14.50
2018-10-03T09:52:41.746Z,14.50
2018-10-03T09:55:09.809Z,14.40
2018-10-03T09:57:37.508Z,14.30
2018-10-03T10:00:06.166Z,14.30
2018-10-03T10:02:33.796Z,14.30
2018-10-03T10:05:01.580Z,14.30
2018-10-03T10:07:29.413Z,14.30
2018-10-03T10:09:57.216Z,14.60
2018-10-03T10:12:24.927Z,14.80
2018-10-03T10:14:52.652Z,14.70
2018-10-03T10:17:20.444Z,14.80
2018-10-03T10:19:48.237Z,14.70
2018-10-03T10:22:16.085Z,14.90
2018-10-03T10:24:44.037Z,14.50
2018-10-03T10:27:12.006Z,14.60
2018-10-03T10:29:39.803Z,14.70
2018-10-03T10:32:07.678Z,14.70
2018-10-03T10:34:35.384Z,15.00
2018-10-03T10:37:03.145Z,15.30
2018-10-03T10:39:30.923Z,15.20
2018-10-03T10:41:58.814Z,14.90
2018-10-03T10:44:26.439Z,14.50
2018-10-03T10:46:54.253Z,14.00
2018-10-03T10:49:21.987Z,13.80
2018-10-03T10:51:49.795Z,13.30
2018-10-03T10:54:17.399Z,13.10
2018-10-03T10:56:45.107Z,13.10
2018-10-03T10:59:12.770Z,13.50
2018-10-03T11:01:40.546Z,14.00
2018-10-03T11:04:08.251Z,14.60
2018-10-03T11:06:36.237Z,15.20
2018-10-03T11:09:04.907Z,15.70
2018-10-03T11:11:32.837Z,16.40
2018-10-03T11:14:00.615Z,16.30
2018-10-03T11:16:28.467Z,16.00
2018-10-03T11:18:56.208Z,15.70
2018-10-03T11:21:23.880Z,14.80
2018-10-03T11:23:51.647Z,14.20
2018-10-03T11:26:24.141Z,13.60
2018-10-03T11:28:51.974Z,12.50
2018-10-03T11:31:20.016Z,12.40
2018-10-03T11:33:47.961Z,12.60
2018-10-03T11:36:15.682Z,13.40
2018-10-03T11:38:43.503Z,13.60
2018-10-03T11:41:11.369Z,13.60
2018-10-03T11:43:39.290Z,13.50
2018-10-03T11:46:07.257Z,13.20
2018-10-03T11:48:35.149Z,13.30
2018-10-03T11:51:02.910Z,14.30
2018-10-03T11:53:30.796Z,15.70
2018-10-03T11:55:58.578Z,16.90
2018-10-03T11:58:26.283Z,16.20
2018-10-03T12:00:53.994Z,16.30
2018-10-03T12:03:21.982Z,18.00
2018-10-03T12:05:49.579Z,17.90
2018-10-03T12:08:17.537Z,16.10
2018-10-03T12:10:45.239Z,14.30
2018-10-03T12:13:13.112Z,13.80
2018-10-03T12:15:40.948Z,13.60
2018-10-03T12:18:09.060Z,13.50
2018-10-03T12:20:36.890Z,14.30
2018-10-03T12:23:04.604Z,15.20
2018-10-03T12:25:32.340Z,14.90
2018-10-03T12:28:00.000Z,14.50
2018-10-03T12:30:28.324Z,14.10
2018-10-03T12:32:56.058Z,13.60
2018-10-03T12:35:29.375Z,13.20
2018-10-03T12:37:57.951Z,13.10
2018-10-03T12:40:25.627Z,13.20
2018-10-03T12:42:53.512Z,13.40
2018-10-03T12:45:21.417Z,13.50
2018-10-03T12:47:49.148Z,13.20
2018-10-03T12:50:16.950Z,13.30
2018-10-03T12:52:44.634Z,13.50
2018-10-03T12:55:12.390Z,13.70
2018-10-03T12:57:40.078Z,14.50
2018-10-03T13:00:07.802Z,17.30
2018-10-03T13:02:35.534Z,18.90
2018-10-03T13:05:03.195Z,18.00
2018-10-03T13:07:31.123Z,19.20
2018-10-03T13:09:58.810Z,20.90
2018-10-03T13:12:26.410Z,21.20
2018-10-03T13:14:54.126Z,20.90
2018-10-03T13:17:21.805Z,20.20
2018-10-03T13:19:49.440Z,19.60
2018-10-03T13:22:17.159Z,19.90
2018-10-03T13:24:44.794Z,21.00
2018-10-03T13:27:12.480Z,22.10
2018-10-03T13:29:40.396Z,23.30
2018-10-03T13:32:08.300Z,22.90
2018-10-03T13:34:36.428Z,21.50
2018-10-03T13:37:04.559Z,21.30
2018-10-03T13:39:32.555Z,22.00
2018-10-03T13:42:00.434Z,21.70
2018-10-03T13:44:28.264Z,20.10
2018-10-03T13:46:56.206Z,19.60
2018-10-03T13:49:24.246Z,19.60
2018-10-03T13:51:52.202Z,18.70
2018-10-03T13:54:20.240Z,18.50
2018-10-03T13:56:48.144Z,18.50
2018-10-03T13:59:16.276Z,19.30
2018-10-03T14:01:44.338Z,20.40
2018-10-03T14:04:12.222Z,19.90
2018-10-03T14:06:40.024Z,20.70
2018-10-03T14:09:09.488Z,19.60
2018-10-03T14:11:37.589Z,18.30
2018-10-03T14:14:05.569Z,17.70
2018-10-03T14:16:33.438Z,18.80
2018-10-03T14:19:01.265Z,18.70
2018-10-03T14:21:29.290Z,19.50
2018-10-03T14:23:57.140Z,20.30
2018-10-03T14:26:25.140Z,19.70
2018-10-03T14:28:53.288Z,18.30
2018-10-03T14:31:21.379Z,17.20
2018-10-03T14:33:49.609Z,16.50
2018-10-03T14:36:17.614Z,16.40
2018-10-03T14:38:45.614Z,16.50
2018-10-03T14:41:13.556Z,17.50
2018-10-03T14:43:41.614Z,18.30
2018-10-03T14:46:09.626Z,17.10
2018-10-03T14:48:37.556Z,16.60
2018-10-03T14:51:05.648Z,16.30
2018-10-03T14:53:33.776Z,16.20
2018-10-03T14:56:01.644Z,15.80
2018-10-03T14:58:29.775Z,15.30
2018-10-03T15:00:57.623Z,14.60
2018-10-03T15:03:25.606Z,14.60
2018-10-03T15:05:53.604Z,14.60
2018-10-03T15:08:21.462Z,14.70
2018-10-03T15:10:49.399Z,15.20
2018-10-03T15:13:17.453Z,16.20
2018-10-03T15:15:46.602Z,17.40
2018-10-03T15:18:14.536Z,17.20
2018-10-03T15:20:42.454Z,18.20
2018-10-03T15:23:10.459Z,18.60
2018-10-03T15:25:38.402Z,18.30
2018-10-03T15:28:06.354Z,17.30
2018-10-03T15:30:34.549Z,16.10
2018-10-03T15:33:02.488Z,15.60
2018-10-03T15:35:30.562Z,14.90
2018-10-03T15:37:59.805Z,14.80
2018-10-03T15:40:34.747Z,14.40
2018-10-03T15:43:02.696Z,14.10
2018-10-03T15:45:30.760Z,14.00
2018-10-03T15:47:58.823Z,13.80
2018-10-03T15:50:27.015Z,13.60
2018-10-03T15:52:54.944Z,13.50
2018-10-03T15:55:22.949Z,13.30
2018-10-03T15:57:51.053Z,13.30
2018-10-03T16:00:18.999Z,13.30
2018-10-03T16:02:46.892Z,13.30
2018-10-03T16:05:14.895Z,13.20
2018-10-03T16:07:42.934Z,13.10
2018-10-03T16:10:10.922Z,13.00
2018-10-03T16:12:38.762Z,12.90
2018-10-03T16:15:06.875Z,12.90
2018-10-03T16:17:34.794Z,12.90
2018-10-03T16:20:02.824Z,12.90
2018-10-03T16:22:30.797Z,12.90
2018-10-03T16:24:58.944Z,12.80
2018-10-03T16:27:26.943Z,12.60
2018-10-03T16:29:54.846Z,12.50
2018-10-03T16:32:22.934Z,12.30
2018-10-03T16:34:51.193Z,12.10
2018-10-03T16:37:19.295Z,12.00
2018-10-03T16:39:47.161Z,11.80
2018-10-03T16:42:15.491Z,11.80
2018-10-03T16:44:43.622Z,11.70
2018-10-03T16:47:11.577Z,11.50
2018-10-03T16:49:39.620Z,11.50
2018-10-03T16:52:07.683Z,11.30
2018-10-03T16:54:35.641Z,11.20
2018-10-03T16:57:03.678Z,11.20
2018-10-03T16:59:31.619Z,11.20
2018-10-03T17:01:59.900Z,11.20
2018-10-03T17:04:28.011Z,11.20
2018-10-03T17:06:56.590Z,11.30
2018-10-03T17:09:24.618Z,11.40
2018-10-03T17:11:52.494Z,11.40
2018-10-03T17:14:23.660Z,11.50
2018-10-03T17:16:52.251Z,11.50
2018-10-03T17:19:20.151Z,11.50
2018-10-03T17:21:49.207Z,11.50
2018-10-03T17:24:17.157Z,11.40
2018-10-03T17:26:45.592Z,11.40
2018-10-03T17:29:13.895Z,11.40
2018-10-03T17:31:42.882Z,11.40
2018-10-03T17:34:14.327Z,11.40
2018-10-03T17:36:44.000Z,11.40
2018-10-03T17:39:12.342Z,11.30
2018-10-03T17:41:41.306Z,11.30
2018-10-03T17:44:09.562Z,11.40
2018-10-03T17:46:37.603Z,11.50
2018-10-03T17:49:05.784Z,11.50
2018-10-03T17:51:33.577Z,11.50
2018-10-03T17:54:01.586Z,11.50
2018-10-03T17:56:29.592Z,11.60
2018-10-03T17:58:57.689Z,11.60
2018-10-03T18:01:27.408Z,11.60
2018-10-03T18:03:55.241Z,11.70
2018-10-03T18:06:23.277Z,11.70
2018-10-03T18:08:51.226Z,11.70
2018-10-03T18:11:19.615Z,11.70
2018-10-03T18:13:47.646Z,11.70
2018-10-03T18:16:15.985Z,11.70
2018-10-03T18:18:43.939Z,11.80
2018-10-03T18:21:15.155Z,11.80
2018-10-03T18:23:43.182Z,11.80
2018-10-03T18:26:11.373Z,11.80
2018-10-03T18:28:39.309Z,11.70
2018-10-03T18:31:07.153Z,11.60
2018-10-03T18:33:35.091Z,11.60
2018-10-03T18:36:03.199Z,11.50
2018-10-03T18:38:31.243Z,11.60
2018-10-03T18:40:59.897Z,11.60
2018-10-03T18:43:28.230Z,11.60
2018-10-03T18:45:56.341Z,11.70
2018-10-03T18:48:24.817Z,11.70
2018-10-03T18:50:52.837Z,11.70
2018-10-03T18:53:20.850Z,11.70
2018-10-03T18:55:49.087Z,11.70
2018-10-03T18:58:17.291Z,11.70
2018-10-03T19:00:45.712Z,11.70
2018-10-03T19:03:13.978Z,11.70
2018-10-03T19:05:42.236Z,11.60
2018-10-03T19:08:10.497Z,11.60
2018-10-03T19:10:38.917Z,11.50
2018-10-03T19:13:06.952Z,11.50
2018-10-03T19:15:38.236Z,11.40
2018-10-03T19:18:06.456Z,11.40
2018-10-03T19:20:35.066Z,11.40
2018-10-03T19:23:03.595Z,11.30
2018-10-03T19:25:32.115Z,11.30
2018-10-03T19:28:00.143Z,11.30
2018-10-03T19:30:28.495Z,11.30
2018-10-03T19:32:56.748Z,11.30
2018-10-03T19:35:26.268Z,11.30
2018-10-03T19:37:54.196Z,11.40
2018-10-03T19:40:22.203Z,11.30
2018-10-03T19:42:50.411Z,11.30
2018-10-03T19:45:18.695Z,11.40
2018-10-03T19:47:47.183Z,11.50
2018-10-03T19:50:18.168Z,11.40
2018-10-03T19:52:46.352Z,11.50
2018-10-03T19:55:14.432Z,11.50
2018-10-03T19:57:42.442Z,11.50
2018-10-03T20:00:10.831Z,11.50
2018-10-03T20:02:38.726Z,11.50
2018-10-03T20:05:07.050Z,11.50
2018-10-03T20:07:35.124Z,11.60
2018-10-03T20:10:05.133Z,11.60
2018-10-03T20:12:33.157Z,11.60
2018-10-03T20:15:01.266Z,11.50
2018-10-03T20:17:29.212Z,11.50
2018-10-03T20:19:57.818Z,11.60
2018-10-03T20:22:25.700Z,11.50
2018-10-03T20:24:53.724Z,11.50
2018-10-03T20:27:21.734Z,11.50
2018-10-03T20:29:49.520Z,11.50
2018-10-03T20:32:17.520Z,11.50
2018-10-03T20:34:45.311Z,11.50
2018-10-03T20:37:13.630Z,11.40
2018-10-03T20:39:41.362Z,11.40
2018-10-03T20:42:09.157Z,11.40
2018-10-03T20:44:37.013Z,11.50
2018-10-03T20:47:05.598Z,11.40
2018-10-03T20:52:17.123Z,11.50
2018-10-03T20:54:44.907Z,11.50
2018-10-03T20:57:12.628Z,11.60
2018-10-03T20:59:40.408Z,11.60
2018-10-03T21:02:08.332Z,11.70
2018-10-03T21:04:36.471Z,11.60
2018-10-03T21:07:04.193Z,11.70
2018-10-03T21:09:31.899Z,11.70
2018-10-03T21:11:59.653Z,11.70
2018-10-03T21:14:27.666Z,11.70
2018-10-03T21:16:55.467Z,11.70
2018-10-03T21:19:24.853Z,11.60
2018-10-03T21:21:53.154Z,11.70
2018-10-03T21:24:20.906Z,11.70
2018-10-03T21:26:48.933Z,11.70
2018-10-03T21:29:16.854Z,11.70
2018-10-03T21:31:45.296Z,11.70
2018-10-03T21:34:13.041Z,11.80
2018-10-03T21:36:40.909Z,11.80
2018-10-03T21:39:09.046Z,11.80
2018-10-03T21:41:36.935Z,11.70
2018-10-03T21:44:04.885Z,11.80
2018-10-03T21:46:32.856Z,11.80
2018-10-03T21:49:00.778Z,11.80
2018-10-03T21:51:28.640Z,11.70
2018-10-03T21:53:56.519Z,11.80
2018-10-03T21:56:24.322Z,11.70
2018-10-03T21:58:52.101Z,11.80
2018-10-03T22:01:19.988Z,11.80
2018-10-03T22:03:47.768Z,11.70
2018-10-03T22:06:15.770Z,11.70
2018-10-03T22:08:43.561Z,11.70
2018-10-03T22:11:11.350Z,11.70
2018-10-03T22:13:39.184Z,11.70
2018-10-03T22:16:08.893Z,11.70
2018-10-03T22:18:36.665Z,11.70
2018-10-03T22:21:04.821Z,11.70
2018-10-03T22:23:32.658Z,11.70
2018-10-03T22:26:01.086Z,11.60
2018-10-03T22:28:29.616Z,11.50
2018-10-03T22:30:58.047Z,11.40
2018-10-03T22:33:25.903Z,11.20
2018-10-03T22:35:55.101Z,11.10
2018-10-03T22:38:22.867Z,11.10
2018-10-03T22:40:51.095Z,11.00
2018-10-03T22:43:18.849Z,10.90
2018-10-03T22:45:47.278Z,10.80
2018-10-03T22:48:15.117Z,10.80
2018-10-03T22:53:33.457Z,10.70
2018-10-03T22:56:01.341Z,10.70
2018-10-03T22:58:29.068Z,10.80
2018-10-03T23:00:56.962Z,10.80
2018-10-03T23:03:24.758Z,10.90
2018-10-03T23:05:52.534Z,10.80
2018-10-03T23:08:20.320Z,10.80
2018-10-03T23:10:48.004Z,10.80
2018-10-03T23:13:15.840Z,10.70
2018-10-03T23:15:43.624Z,10.70
2018-10-03T23:18:11.227Z,10.60
2018-10-03T23:20:38.875Z,10.60
2018-10-03T23:23:06.527Z,10.60
2018-10-03T23:25:34.487Z,10.60
2018-10-03T23:28:02.085Z,10.60
2018-10-03T23:30:29.719Z,10.50
2018-10-03T23:32:57.403Z,10.50
2018-10-03T23:35:25.115Z,10.60
2018-10-03T23:37:52.773Z,10.60
2018-10-03T23:40:20.462Z,10.50
2018-10-03T23:42:48.117Z,10.50
2018-10-03T23:45:15.818Z,10.50
2018-10-03T23:47:43.452Z,10.50
2018-10-03T23:50:11.076Z,10.50
2018-10-03T23:52:38.763Z,10.60
2018-10-03T23:55:06.930Z,10.60
2018-10-03T23:57:34.766Z,10.60
